Time;durP1;ratioP1;P1;durP2;ratioP2;P2;SDS_P1;SDS_P2;PMS_P1;PMS_P2;Temp;Humidity;BMP_temperature;BMP_pressure;BME280_temperature;BME280_humidity;BME280_pressure;Samples;Min_cycle;Max_cycle;Signal;HPM_P1;HPM_P2
2023/07/07 00:00:00;;;;;;;3.80;3.23;;;;;;;16.02;100.00;100478.50;4960428;28;20209;-76
2023/07/07 00:02:25;;;;;;;4.07;3.50;;;;;;;16.00;100.00;100473.34;4962701;28;20208;-77
2023/07/07 00:04:51;;;;;;;5.60;3.93;;;;;;;16.01;100.00;100479.41;4946782;28;20194;-76
2023/07/07 00:07:16;;;;;;;4.23;3.83;;;;;;;16.00;100.00;100478.56;4950296;28;20238;-75
2023/07/07 00:09:42;;;;;;;5.43;3.67;;;;;;;15.96;100.00;100473.44;4966151;28;20190;-76
2023/07/07 00:12:07;;;;;;;5.10;3.90;;;;;;;15.90;100.00;100471.88;4966699;28;20212;-75
2023/07/07 00:14:33;;;;;;;3.40;3.10;;;;;;;15.87;100.00;100477.19;4958590;28;20881;-76
2023/07/07 00:17:01;;;;;;;3.73;3.30;;;;;;;15.82;100.00;100476.44;4955927;28;20662;-78
2023/07/07 00:19:32;;;;;;;3.90;3.50;;;;;;;15.78;100.00;100482.63;4950078;28;20190;-76
2023/07/07 00:21:59;;;;;;;4.13;3.73;;;;;;;15.73;100.00;100480.16;4960054;28;20189;-75
2023/07/07 00:24:25;;;;;;;4.57;3.63;;;;;;;15.70;100.00;100481.09;4949462;28;20225;-76
2023/07/07 00:26:51;;;;;;;3.87;3.00;;;;;;;15.66;100.00;100482.06;4945964;28;20217;-76
2023/07/07 00:29:16;;;;;;;3.53;3.27;;;;;;;15.62;100.00;100477.81;4949406;28;20198;-75
2023/07/07 00:31:41;;;;;;;4.00;3.50;;;;;;;15.59;100.00;100479.66;4951371;28;20241;-75
2023/07/07 00:34:07;;;;;;;5.30;3.77;;;;;;;15.54;100.00;100485.84;4955892;28;20221;-75
2023/07/07 00:36:32;;;;;;;4.80;3.80;;;;;;;15.49;100.00;100481.66;4953744;28;20211;-75
2023/07/07 00:38:57;;;;;;;4.10;3.70;;;;;;;15.44;100.00;100487.00;4951197;28;20189;-75
2023/07/07 00:41:23;;;;;;;3.90;3.50;;;;;;;15.41;100.00;100487.06;4983968;28;20194;-75
2023/07/07 00:44:10;;;;;;;4.00;3.70;;;;;;;15.36;100.00;100489.81;4979941;28;20237;-75
2023/07/07 00:46:37;;;;;;;3.80;3.50;;;;;;;15.31;100.00;100481.22;4960004;28;20222;-76
2023/07/07 00:49:08;;;;;;;3.70;3.30;;;;;;;15.28;100.00;100483.06;4958384;28;20225;-75
2023/07/07 00:51:40;;;;;;;4.17;3.47;;;;;;;15.22;100.00;100484.94;4943676;28;20281;-74
2023/07/07 00:54:11;;;;;;;3.60;3.30;;;;;;;15.20;100.00;100475.44;4950004;28;20723;-75
2023/07/07 00:56:41;;;;;;;4.93;3.20;;;;;;;15.16;100.00;100485.09;4951029;28;20237;-76
2023/07/07 00:59:15;;;;;;;4.10;3.13;;;;;;;15.14;100.00;100486.00;4991565;28;20665;-76
2023/07/07 01:01:42;;;;;;;3.83;3.50;;;;;;;15.12;100.00;100493.03;4973872;28;20577;-76
2023/07/07 01:04:13;;;;;;;4.00;3.60;;;;;;;15.08;100.00;100493.09;4946497;28;20187;-76
2023/07/07 01:06:42;;;;;;;4.60;3.47;;;;;;;15.08;100.00;100484.41;4948276;28;20216;-75
2023/07/07 01:09:11;;;;;;;3.87;3.57;;;;;;;15.06;100.00;100481.84;4956368;28;20717;-76
2023/07/07 01:11:37;;;;;;;4.53;3.60;;;;;;;15.07;100.00;100482.69;4942898;28;20190;-76
2023/07/07 01:14:07;;;;;;;4.03;3.63;;;;;;;15.05;100.00;100484.50;4952125;28;20682;-76
2023/07/07 01:16:38;;;;;;;3.70;3.37;;;;;;;15.02;100.00;100492.41;4980666;28;20215;-76
2023/07/07 01:19:15;;;;;;;3.77;3.47;;;;;;;15.00;100.00;100492.41;4947400;28;20232;-75
2023/07/07 01:22:18;;;;;;;3.87;3.50;;;;;;;14.99;100.00;100495.06;4963057;28;20648;-76
2023/07/07 01:24:58;;;;;;;5.93;3.53;;;;;;;14.96;100.00;100501.22;4949523;28;20237;-74
2023/07/07 01:27:42;;;;;;;3.87;3.47;;;;;;;14.91;100.00;100505.69;4944036;28;20268;-75
2023/07/07 01:30:31;;;;;;;4.20;3.57;;;;;;;14.87;100.00;100494.47;4945737;28;20188;-75
2023/07/07 01:32:57;;;;;;;3.77;3.47;;;;;;;14.86;100.00;100497.09;4943976;28;20301;-76
2023/07/07 01:35:23;;;;;;;4.03;3.63;;;;;;;14.84;100.00;100497.16;4947171;28;20564;-77
2023/07/07 01:37:51;;;;;;;3.73;3.43;;;;;;;14.84;100.00;100493.69;4946289;28;20217;-76
2023/07/07 01:40:16;;;;;;;3.97;3.67;;;;;;;14.78;100.00;100490.34;4945802;28;20189;-77
2023/07/07 01:42:47;;;;;;;4.20;3.20;;;;;;;14.74;100.00;100491.28;4963804;28;20682;-74
2023/07/07 01:45:31;;;;;;;3.70;3.50;;;;;;;14.69;100.00;100500.13;4948620;28;20195;-75
2023/07/07 01:48:07;;;;;;;4.33;3.93;;;;;;;14.66;100.00;100494.94;4945684;28;20749;-75
2023/07/07 01:50:33;;;;;;;3.50;3.20;;;;;;;14.63;100.00;100490.66;4944544;28;20196;-75
2023/07/07 01:53:05;;;;;;;3.70;3.40;;;;;;;14.58;100.00;100492.50;4946721;28;20213;-74
2023/07/07 01:55:43;;;;;;;3.73;3.43;;;;;;;14.54;100.00;100486.50;4948442;28;20184;-75
2023/07/07 01:58:10;;;;;;;3.70;3.40;;;;;;;14.50;100.00;100491.81;4946804;28;20250;-76
2023/07/07 02:00:36;;;;;;;4.20;3.80;;;;;;;14.47;100.00;100488.41;4945825;28;20610;-75
2023/07/07 02:03:08;;;;;;;3.70;3.40;;;;;;;14.43;100.00;100488.50;4947396;28;20311;-75
2023/07/07 02:05:33;;;;;;;4.40;3.47;;;;;;;14.42;100.00;100487.63;4947155;28;20193;-75
2023/07/07 02:07:59;;;;;;;4.43;4.03;;;;;;;14.41;100.00;100488.50;4958565;28;20214;-75
2023/07/07 02:10:24;;;;;;;5.00;3.80;;;;;;;14.39;100.00;100481.63;4944184;28;20719;-75
2023/07/07 02:12:49;;;;;;;3.70;3.40;;;;;;;14.38;100.00;100485.97;4939969;28;20201;-75
2023/07/07 02:15:15;;;;;;;4.00;3.70;;;;;;;14.40;100.00;100488.56;4941944;28;20199;-76
2023/07/07 02:17:40;;;;;;;4.10;3.70;;;;;;;14.39;100.00;100484.25;4976675;28;20260;-75
2023/07/07 02:20:06;;;;;;;3.73;3.43;;;;;;;14.35;100.00;100486.06;4947456;28;20750;-75
2023/07/07 02:22:31;;;;;;;3.90;3.60;;;;;;;14.31;100.00;100495.66;4946705;28;20205;-74
2023/07/07 02:24:57;;;;;;;3.73;3.43;;;;;;;14.28;100.00;100494.88;4938549;28;20632;-76
2023/07/07 02:27:22;;;;;;;3.50;3.20;;;;;;;14.24;100.00;100491.50;4957391;28;20335;-75
2023/07/07 02:29:47;;;;;;;3.57;3.27;;;;;;;14.21;100.00;100488.94;4944138;28;20197;-75
2023/07/07 02:32:13;;;;;;;4.00;3.70;;;;;;;14.19;100.00;100495.94;4946672;28;20194;-75
2023/07/07 02:34:40;;;;;;;4.10;3.70;;;;;;;14.16;100.00;100494.25;4953066;28;20303;-76
2023/07/07 02:37:12;;;;;;;4.30;3.90;;;;;;;14.18;100.00;100496.81;4946812;28;20225;-75
2023/07/07 02:39:38;;;;;;;4.23;3.83;;;;;;;14.15;100.00;100502.06;4945444;28;20542;-76
2023/07/07 02:42:04;;;;;;;3.80;3.50;;;;;;;14.12;100.00;100505.59;4939405;28;20685;-75
2023/07/07 02:44:29;;;;;;;4.37;3.77;;;;;;;14.09;100.00;100505.66;4947061;28;20273;-76
2023/07/07 02:46:55;;;;;;;5.10;4.00;;;;;;;14.07;100.00;100504.81;4949795;28;20704;-75
2023/07/07 02:49:20;;;;;;;4.27;3.97;;;;;;;14.07;100.00;100504.00;4978726;28;20307;-75
2023/07/07 02:51:45;;;;;;;4.07;3.67;;;;;;;14.06;100.00;100500.53;4979268;28;20235;-76
2023/07/07 02:54:11;;;;;;;4.07;3.77;;;;;;;14.05;100.00;100503.16;4947425;28;20217;-76
2023/07/07 02:56:36;;;;;;;4.33;3.87;;;;;;;14.02;100.00;100504.94;4941869;28;20220;-76
2023/07/07 02:59:01;;;;;;;4.70;3.77;;;;;;;13.97;100.00;100504.19;4949903;28;20203;-76
2023/07/07 03:01:27;;;;;;;4.90;4.03;;;;;;;13.94;100.00;100512.03;4966684;28;20233;-74
2023/07/07 03:03:56;;;;;;;3.80;3.50;;;;;;;13.92;100.00;100502.53;4958156;28;20567;-75
2023/07/07 03:06:23;;;;;;;5.00;4.10;;;;;;;13.87;100.00;100500.03;4949263;28;20224;-76
2023/07/07 03:08:49;;;;;;;4.37;3.97;;;;;;;13.86;100.00;100496.56;4943245;28;20196;-75
2023/07/07 03:11:17;;;;;;;3.77;3.47;;;;;;;13.83;100.00;100491.44;4948027;28;20204;-75
2023/07/07 03:13:44;;;;;;;3.93;3.53;;;;;;;13.80;100.00;100509.69;4960745;28;20229;-75
2023/07/07 03:16:13;;;;;;;4.07;3.73;;;;;;;13.81;100.00;100513.16;4966546;28;20214;-75
2023/07/07 03:18:40;;;;;;;4.40;4.00;;;;;;;13.81;100.00;100519.22;4948021;28;20550;-75
2023/07/07 03:21:05;;;;;;;4.57;4.17;;;;;;;13.81;100.00;100518.38;4951311;28;20196;-76
2023/07/07 03:23:31;;;;;;;4.20;3.80;;;;;;;13.80;100.00;100519.25;4965016;28;20250;-76
2023/07/07 03:25:56;;;;;;;4.17;3.77;;;;;;;13.79;100.00;100514.94;4950288;28;20188;-76
2023/07/07 03:28:22;;;;;;;4.47;3.63;;;;;;;13.78;100.00;100513.22;4949868;28;20296;-76
2023/07/07 03:30:48;;;;;;;4.70;4.23;;;;;;;13.78;100.00;100521.84;4947970;28;20187;-75
2023/07/07 03:33:14;;;;;;;4.07;3.70;;;;;;;13.75;100.00;100513.25;4950925;28;20248;-75
2023/07/07 03:35:39;;;;;;;4.17;3.77;;;;;;;13.74;100.00;100514.16;4981192;28;20231;-76
2023/07/07 03:38:05;;;;;;;4.40;4.00;;;;;;;13.72;100.00;100514.19;4948938;28;20241;-77
2023/07/07 03:40:31;;;;;;;4.00;3.70;;;;;;;13.71;100.00;100520.28;4945680;28;20657;-75
2023/07/07 03:42:56;;;;;;;4.30;3.90;;;;;;;13.70;100.00;100523.75;4950424;28;20585;-76
2023/07/07 03:45:22;;;;;;;4.07;3.40;;;;;;;13.71;100.00;100520.28;4949124;28;20184;-76
2023/07/07 03:47:47;;;;;;;3.80;3.50;;;;;;;13.75;100.00;100521.06;4979976;28;20535;-75
2023/07/07 03:50:13;;;;;;;4.10;3.70;;;;;;;13.78;100.00;100514.06;4949809;28;20235;-76
2023/07/07 03:52:38;;;;;;;4.60;4.20;;;;;;;13.81;100.00;100516.59;4950546;28;20220;-76
2023/07/07 03:55:04;;;;;;;4.20;3.80;;;;;;;13.84;100.00;100526.13;4946421;28;22112;-75
2023/07/07 03:57:30;;;;;;;4.20;3.80;;;;;;;13.91;100.00;100519.06;4949909;28;20255;-74
2023/07/07 03:59:55;;;;;;;4.50;4.10;;;;;;;13.99;100.00;100527.56;4960421;28;20201;-75
2023/07/07 04:02:21;;;;;;;4.43;3.93;;;;;;;14.14;100.00;100524.66;4943114;28;20641;-75
2023/07/07 04:04:46;;;;;;;6.10;4.23;;;;;;;14.28;100.00;100520.91;4950356;28;20204;-76
2023/07/07 04:07:11;;;;;;;6.10;3.97;;;;;;;14.37;100.00;100520.72;4943166;28;20695;-75
2023/07/07 04:09:37;;;;;;;4.47;4.00;;;;;;;14.45;100.00;100518.81;4959254;28;20188;-76
2023/07/07 04:12:06;;;;;;;4.60;4.20;;;;;;;14.51;100.00;100519.59;4950361;28;20185;-75
2023/07/07 04:14:31;;;;;;;3.70;3.40;;;;;;;14.59;100.00;100523.75;4940642;28;20254;-76
2023/07/07 04:16:57;;;;;;;4.07;3.70;;;;;;;14.66;100.00;100527.06;4950640;28;20284;-76
2023/07/07 04:19:22;;;;;;;5.13;3.73;;;;;;;14.72;100.00;100523.50;4942772;28;20194;-76
2023/07/07 04:21:47;;;;;;;5.27;4.13;;;;;;;14.77;100.00;100525.09;4944992;28;20193;-75
2023/07/07 04:24:13;;;;;;;6.33;3.93;;;;;;;14.87;100.00;100522.28;4947141;28;20192;-75
2023/07/07 04:26:39;;;;;;;5.00;4.10;;;;;;;15.04;100.00;100522.75;4948957;28;20325;-76
2023/07/07 04:29:04;;;;;;;7.07;4.37;;;;;;;15.23;100.00;100527.50;4949688;28;20182;-76
2023/07/07 04:31:30;;;;;;;4.53;3.83;;;;;;;15.33;100.00;100526.38;4943863;28;20201;-76
2023/07/07 04:33:56;;;;;;;3.50;3.20;;;;;;;15.34;100.00;100532.47;4947590;28;20220;-76
2023/07/07 04:36:22;;;;;;;3.50;3.20;;;;;;;15.34;100.00;100535.06;4955097;28;20254;-75
2023/07/07 04:38:48;;;;;;;4.00;3.60;;;;;;;15.37;99.96;100527.16;4962654;28;20266;-75
2023/07/07 04:41:22;;;;;;;3.93;3.53;;;;;;;15.48;97.25;100532.97;4952609;28;20191;-75
2023/07/07 04:43:53;;;;;;;3.83;3.53;;;;;;;15.89;95.28;100529.34;4947270;28;20189;-75
2023/07/07 04:46:26;;;;;;;3.83;3.07;;;;;;;16.43;91.69;100531.28;4949388;28;20701;-74
2023/07/07 04:48:51;;;;;;;3.03;2.83;;;;;;;17.18;90.55;100526.41;4956599;28;20194;-75
2023/07/07 04:51:18;;;;;;;4.63;3.23;;;;;;;17.72;86.50;100524.59;4944819;28;20829;-74
2023/07/07 04:53:43;;;;;;;7.57;4.17;;;;;;;18.11;81.98;100528.50;4956507;28;20213;-75
2023/07/07 04:56:15;;;;;;;5.30;3.07;;;;;;;18.76;81.94;100523.44;4951393;28;20742;-76
2023/07/07 04:58:42;;;;;;;3.40;3.10;;;;;;;19.50;81.28;100530.09;4956001;28;20202;-75
2023/07/07 05:01:08;;;;;;;4.37;3.43;;;;;;;20.16;79.33;100531.63;4951916;28;20611;-74
2023/07/07 05:03:35;;;;;;;6.00;3.30;;;;;;;20.63;79.26;100529.50;4948670;28;20238;-74
2023/07/07 05:06:02;;;;;;;5.97;3.17;;;;;;;21.01;79.62;100529.47;4943186;28;20190;-76
2023/07/07 05:08:29;;;;;;;5.37;3.57;;;;;;;21.62;77.22;100530.00;4948400;28;20273;-75
2023/07/07 05:10:54;;;;;;;5.47;3.30;;;;;;;22.23;74.38;100533.81;4952770;28;20183;-75
2023/07/07 05:13:20;;;;;;;4.30;3.07;;;;;;;22.64;72.88;100535.13;4945584;28;20218;-76
2023/07/07 05:15:45;;;;;;;5.33;3.47;;;;;;;22.72;70.36;100532.06;4944618;29;20253;-76
2023/07/07 05:18:10;;;;;;;3.60;3.30;;;;;;;23.17;69.97;100533.97;4941111;28;20226;-75
2023/07/07 05:20:36;;;;;;;4.13;3.40;;;;;;;23.43;69.20;100535.09;4945243;28;20195;-76
2023/07/07 05:23:01;;;;;;;4.80;3.57;;;;;;;23.88;67.80;100543.84;4948500;28;20254;-77
2023/07/07 05:25:26;;;;;;;3.97;3.10;;;;;;;23.97;67.66;100531.03;4947672;28;20195;-76
2023/07/07 05:27:52;;;;;;;5.07;3.20;;;;;;;24.16;67.70;100533.38;4945692;28;20234;-76
2023/07/07 05:30:17;;;;;;;3.43;2.93;;;;;;;24.76;66.00;100532.28;4944171;28;20285;-75
2023/07/07 05:32:42;;;;;;;3.97;2.80;;;;;;;24.90;66.02;100541.94;4957166;28;20194;-75
2023/07/07 05:35:08;;;;;;;6.97;3.50;;;;;;;25.30;65.29;100534.97;4946289;28;20203;-75
2023/07/07 05:37:33;;;;;;;4.33;3.47;;;;;;;25.59;64.74;100535.66;4953589;28;20208;-75
2023/07/07 05:39:59;;;;;;;7.93;3.38;;;;;;;26.03;63.97;100536.19;4982990;28;20197;-74
2023/07/07 05:42:24;;;;;;;4.05;3.08;;;;;;;25.87;63.11;100531.97;4949691;28;20221;-76
2023/07/07 05:44:49;;;;;;;7.20;3.60;;;;;;;25.89;62.22;100525.72;4945805;28;20731;-75
2023/07/07 05:47:15;;;;;;;5.53;3.00;;;;;;;26.51;61.56;100530.16;4947929;28;20736;-76
2023/07/07 05:49:40;;;;;;;6.72;3.53;;;;;;;26.43;61.23;100522.75;4955112;28;20182;-75
2023/07/07 05:52:07;;;;;;;4.05;2.60;;;;;;;26.87;61.50;100524.94;4948208;28;20194;-75
2023/07/07 05:54:32;;;;;;;2.85;2.65;;;;;;;26.68;61.28;100523.66;4985159;28;20313;-76
2023/07/07 05:56:59;;;;;;;5.00;3.40;;;;;;;26.62;60.39;100524.91;4959515;28;20202;-75
2023/07/07 05:59:25;;;;;;;4.40;2.90;;;;;;;26.59;60.47;100537.56;4945384;28;20194;-75
2023/07/07 06:01:50;;;;;;;3.58;2.83;;;;;;;26.77;60.68;100530.09;4946646;28;20189;-75
2023/07/07 06:04:16;;;;;;;3.20;2.90;;;;;;;25.62;61.27;100527.50;4947350;28;20197;-74
2023/07/07 06:06:41;;;;;;;5.15;3.70;;;;;;;25.51;61.63;100535.34;4943338;28;20301;-76
2023/07/07 06:09:06;;;;;;;5.95;2.80;;;;;;;24.57;63.22;100539.66;4949264;28;20270;-76
2023/07/07 06:11:32;;;;;;;3.90;3.20;;;;;;;24.80;62.24;100544.38;4943911;28;20195;-75
2023/07/07 06:13:57;;;;;;;4.63;2.85;;;;;;;25.47;62.69;100537.38;4941504;28;20563;-75
2023/07/07 06:16:23;;;;;;;3.63;3.03;;;;;;;25.65;61.04;100529.09;4939773;28;20256;-75
2023/07/07 06:18:48;;;;;;;3.85;2.90;;;;;;;26.30;60.91;100536.06;4945859;28;20269;-76
2023/07/07 06:21:13;;;;;;;4.50;2.97;;;;;;;26.78;60.35;100540.59;4941943;28;22088;-76
2023/07/07 06:23:39;;;;;;;3.80;3.13;;;;;;;26.91;59.50;100543.22;4939681;28;20194;-75
2023/07/07 06:26:04;;;;;;;5.72;3.58;;;;;;;27.75;60.10;100544.94;4942774;28;20638;-75
2023/07/07 06:28:30;;;;;;;4.35;3.17;;;;;;;27.61;59.03;100543.31;4947318;28;20191;-75
2023/07/07 06:30:55;;;;;;;4.90;3.10;;;;;;;27.61;59.09;100540.66;4944684;28;20195;-74
2023/07/07 06:33:21;;;;;;;5.05;3.10;;;;;;;28.20;59.29;100543.28;4945867;28;20210;-75
2023/07/07 06:35:47;;;;;;;4.43;2.72;;;;;;;28.86;58.47;100548.59;4929656;29;20563;-77
2023/07/07 06:38:13;;;;;;;5.10;2.90;;;;;;;28.96;57.31;100556.69;4939440;28;20207;-76
2023/07/07 06:40:38;;;;;;;5.03;2.67;;;;;;;28.94;57.38;100547.13;4949468;28;20194;-74
2023/07/07 06:43:04;;;;;;;4.85;3.58;;;;;;;28.27;58.58;100550.63;4966837;28;20210;-76
2023/07/07 06:45:31;;;;;;;3.75;3.05;;;;;;;28.82;58.08;100559.63;4951910;28;20734;-77
2023/07/07 06:47:57;;;;;;;6.55;3.35;;;;;;;27.47;56.76;100556.81;4944362;28;20257;-75
2023/07/07 06:50:35;;;;;;;6.43;3.30;;;;;;;26.40;57.92;100559.28;4974681;28;20905;-75
2023/07/07 06:53:00;;;;;;;5.40;2.90;;;;;;;26.41;59.17;100563.63;4943850;28;20214;-76
2023/07/07 06:55:25;;;;;;;3.00;2.70;;;;;;;26.61;59.12;100562.19;4964901;28;20205;-76
2023/07/07 06:57:51;;;;;;;6.15;3.20;;;;;;;26.48;58.06;100559.56;4951556;28;20628;-75
2023/07/07 07:00:17;;;;;;;3.55;2.63;;;;;;;26.62;58.94;100563.91;4958805;28;20262;-75
2023/07/07 07:02:43;;;;;;;3.17;2.88;;;;;;;27.11;58.06;100563.94;4992013;28;20218;-76
2023/07/07 07:05:09;;;;;;;5.43;3.10;;;;;;;27.45;57.51;100562.28;4956262;28;20190;-75
2023/07/07 07:07:34;;;;;;;3.45;2.95;;;;;;;27.31;57.71;100565.09;4950798;28;20237;-75
2023/07/07 07:10:01;;;;;;;3.53;2.88;;;;;;;27.22;57.60;100559.53;4949761;28;20198;-76
2023/07/07 07:12:26;;;;;;;3.78;2.92;;;;;;;27.24;57.64;100560.22;4952054;28;20201;-76
2023/07/07 07:14:52;;;;;;;5.53;3.22;;;;;;;25.64;59.37;100560.06;4949893;28;20210;-75
2023/07/07 07:17:18;;;;;;;3.67;2.95;;;;;;;25.68;59.92;100556.25;4949789;28;20206;-76
2023/07/07 07:19:43;;;;;;;3.33;3.03;;;;;;;26.27;58.53;100554.84;4951390;28;20242;-76
2023/07/07 07:22:08;;;;;;;5.10;3.42;;;;;;;26.53;58.24;100559.25;4950509;28;20190;-75
2023/07/07 07:24:33;;;;;;;4.57;3.28;;;;;;;26.30;59.02;100559.97;4948648;28;20198;-75
2023/07/07 07:26:59;;;;;;;4.35;3.17;;;;;;;25.36;60.17;100558.38;4950830;29;20290;-75
2023/07/07 07:29:24;;;;;;;5.75;3.13;;;;;;;25.33;60.75;100559.44;4951357;28;20190;-75
2023/07/07 07:31:49;;;;;;;4.53;3.00;;;;;;;26.01;59.62;100556.66;4950820;29;20179;-76
2023/07/07 07:34:33;;;;;;;4.30;3.25;;;;;;;25.77;60.58;100557.44;4945605;28;20207;-75
2023/07/07 07:37:00;;;;;;;4.68;4.00;;;;;;;25.68;60.31;100556.25;4964815;28;20214;-74
2023/07/07 07:39:27;;;;;;;4.82;3.15;;;;;;;25.68;59.97;100548.31;4965669;28;20264;-76
2023/07/07 07:41:54;;;;;;;5.55;3.40;;;;;;;26.26;59.77;100553.16;4951537;29;20261;-74
2023/07/07 07:44:21;;;;;;;4.68;3.30;;;;;;;26.37;59.96;100539.13;4951371;28;20313;-73
2023/07/07 07:46:49;;;;;;;4.18;3.15;;;;;;;25.60;61.05;100549.78;4950011;28;20289;-74
2023/07/07 07:49:14;;;;;;;4.68;3.08;;;;;;;25.89;61.15;100545.09;4957112;28;20198;-75
2023/07/07 07:51:40;;;;;;;6.88;3.60;;;;;;;25.88;61.14;100546.06;4942975;28;20199;-74
2023/07/07 07:54:07;;;;;;;4.93;3.40;;;;;;;25.70;60.96;100546.41;4949267;28;20297;-77
2023/07/07 07:56:34;;;;;;;4.93;3.28;;;;;;;25.43;61.29;100546.47;4951269;28;20298;-75
2023/07/07 07:59:00;;;;;;;3.72;3.35;;;;;;;26.07;61.04;100544.78;4951395;28;20258;-74
2023/07/07 08:01:25;;;;;;;9.70;3.90;;;;;;;25.58;61.32;100547.22;4951375;28;20186;-76
2023/07/07 08:03:51;;;;;;;6.25;4.25;;;;;;;25.58;61.96;100549.03;4951952;28;20273;-76
2023/07/07 08:06:16;;;;;;;4.90;3.25;;;;;;;25.61;61.02;100554.97;4983610;28;20190;-73
2023/07/07 08:08:42;;;;;;;5.03;3.33;;;;;;;25.99;61.40;100545.31;4950468;28;20190;-75
2023/07/07 08:11:11;;;;;;;4.47;3.30;;;;;;;26.36;60.52;100544.53;4949424;28;20233;-74
2023/07/07 08:13:37;;;;;;;6.47;3.55;;;;;;;26.21;60.59;100541.19;4948943;28;20297;-75
2023/07/07 08:16:02;;;;;;;6.13;3.67;;;;;;;25.71;61.29;100547.22;4950247;28;20996;-75
2023/07/07 08:18:27;;;;;;;6.88;3.20;;;;;;;25.68;62.50;100540.34;4949156;28;20186;-75
2023/07/07 08:20:53;;;;;;;4.65;3.40;;;;;;;25.55;62.36;100536.84;4949818;28;20182;-74
2023/07/07 08:23:18;;;;;;;6.15;3.63;;;;;;;25.73;62.43;100529.41;4950724;28;20182;-75
2023/07/07 08:25:45;;;;;;;3.95;3.28;;;;;;;26.24;61.95;100533.84;4948530;28;20182;-76
2023/07/07 08:28:11;;;;;;;7.55;4.00;;;;;;;25.69;63.00;100535.88;4949880;28;20336;-75
2023/07/07 08:30:36;;;;;;;3.83;3.38;;;;;;;26.17;62.52;100541.41;4951545;28;20206;-76
2023/07/07 08:33:02;;;;;;;5.22;3.33;;;;;;;25.38;63.18;100528.22;4951528;28;20198;-76
2023/07/07 08:35:27;;;;;;;5.38;3.65;;;;;;;25.39;63.27;100531.69;4945297;28;20180;-75
2023/07/07 08:37:52;;;;;;;4.85;3.40;;;;;;;26.05;63.15;100530.78;4949764;28;20748;-75
2023/07/07 08:40:22;;;;;;;4.22;3.83;;;;;;;25.85;62.85;100525.91;4964286;28;20719;-74
2023/07/07 08:42:48;;;;;;;3.97;2.90;;;;;;;26.37;61.93;100531.19;4946202;28;20647;-75
2023/07/07 08:45:17;;;;;;;3.90;3.50;;;;;;;26.55;62.10;100530.78;4950351;28;20665;-75
2023/07/07 08:47:51;;;;;;;4.97;3.60;;;;;;;26.62;62.01;100532.03;4950599;28;20677;-75
2023/07/07 08:50:44;;;;;;;4.50;3.53;;;;;;;26.54;61.96;100529.94;4948904;29;20187;-75
2023/07/07 08:53:24;;;;;;;4.20;3.38;;;;;;;25.82;63.78;100523.47;4931354;29;20775;-75
2023/07/07 08:56:00;;;;;;;4.55;3.35;;;;;;;26.17;63.81;100533.44;4940592;28;21382;-74
2023/07/07 08:58:53;;;;;;;4.33;3.70;;;;;;;25.88;63.46;100524.84;4947885;28;20213;-75
2023/07/07 09:01:24;;;;;;;4.90;3.90;;;;;;;25.93;64.42;100524.53;4949466;29;20171;-75
2023/07/07 09:04:18;;;;;;;3.80;3.10;;;;;;;25.80;64.75;100525.38;4950635;28;20191;-75
2023/07/07 09:07:23;;;;;;;6.07;3.60;;;;;;;25.50;64.31;100528.34;4972444;28;20250;-75
2023/07/07 09:10:10;;;;;;;6.87;3.57;;;;;;;25.33;64.71;100527.66;4950506;28;20189;-76
2023/07/07 09:12:47;;;;;;;9.73;4.30;;;;;;;25.52;64.77;100515.84;4947923;28;20221;-76
2023/07/07 09:15:21;;;;;;;7.27;4.47;;;;;;;25.61;64.92;100511.72;4949209;28;20187;-75
2023/07/07 09:17:50;;;;;;;5.03;3.37;;;;;;;25.77;64.48;100519.44;4942576;28;20202;-76
2023/07/07 09:20:21;;;;;;;4.90;4.10;;;;;;;25.87;64.96;100512.53;4962047;28;20190;-75
2023/07/07 09:22:53;;;;;;;6.30;3.97;;;;;;;25.80;65.08;100514.78;4946938;28;20191;-75
2023/07/07 09:25:30;;;;;;;5.13;3.60;;;;;;;25.92;64.50;100509.59;4948765;28;20186;-74
2023/07/07 09:28:01;;;;;;;6.03;3.83;;;;;;;26.01;63.71;100507.16;4944163;28;20225;-74
2023/07/07 09:30:46;;;;;;;5.50;3.87;;;;;;;26.05;64.34;100507.75;4945652;28;20209;-74
2023/07/07 09:33:22;;;;;;;5.60;4.37;;;;;;;26.06;63.32;100501.50;4962739;28;20720;-75
2023/07/07 09:36:15;;;;;;;5.20;4.10;;;;;;;26.22;64.04;100500.44;4958988;28;20182;-75
2023/07/07 09:39:07;;;;;;;4.77;4.30;;;;;;;26.37;63.75;100495.81;4940602;28;20338;-75
2023/07/07 09:41:44;;;;;;;4.60;3.97;;;;;;;26.36;63.63;100497.66;4945484;28;21119;-75
2023/07/07 09:44:09;;;;;;;6.17;4.97;;;;;;;26.35;62.88;100495.94;4946591;28;20263;-75
2023/07/07 09:47:00;;;;;;;5.13;4.30;;;;;;;26.46;63.91;100485.41;4944041;28;21017;-75
2023/07/07 09:49:54;;;;;;;4.73;4.23;;;;;;;26.69;62.27;100489.97;4942218;28;20207;-75
2023/07/07 09:52:42;;;;;;;6.33;4.37;;;;;;;26.58;62.39;100491.63;4949884;28;20195;-75
2023/07/07 09:55:14;;;;;;;5.67;4.40;;;;;;;26.33;61.83;100493.38;4979553;28;20964;-75
2023/07/07 09:57:46;;;;;;;5.27;4.77;;;;;;;26.56;62.17;100484.72;4962572;28;20211;-75
2023/07/07 10:00:19;;;;;;;5.93;4.30;;;;;;;26.55;61.49;100490.97;4941511;28;20195;-75
2023/07/07 10:02:45;;;;;;;4.67;4.20;;;;;;;26.72;61.98;100479.97;4954946;28;20186;-76
2023/07/07 10:05:15;;;;;;;5.27;4.77;;;;;;;26.90;61.40;100482.25;4947209;28;20187;-75
2023/07/07 10:07:41;;;;;;;5.73;4.30;;;;;;;26.86;61.47;100486.06;4946203;28;20249;-76
2023/07/07 10:10:13;;;;;;;4.90;4.40;;;;;;;26.65;61.29;100483.19;4976858;28;20214;-75
2023/07/07 10:12:39;;;;;;;5.30;4.67;;;;;;;26.92;61.65;100475.00;4959417;28;20183;-75
2023/07/07 10:15:30;;;;;;;5.03;4.53;;;;;;;27.02;61.00;100467.19;4946000;28;20690;-75
2023/07/07 10:18:14;;;;;;;6.23;4.47;;;;;;;27.21;61.11;100477.25;4943550;28;20640;-75
2023/07/07 10:20:40;;;;;;;6.77;4.67;;;;;;;27.23;61.03;100465.53;4937883;28;20230;-75
2023/07/07 10:23:09;;;;;;;6.57;4.10;;;;;;;27.33;61.06;100464.84;4949061;28;20716;-75
2023/07/07 10:25:35;;;;;;;5.47;4.90;;;;;;;27.68;60.05;100462.13;4946886;28;20198;-75
2023/07/07 10:28:01;;;;;;;4.60;3.97;;;;;;;27.62;60.66;100465.25;4947043;28;20222;-75
2023/07/07 10:30:27;;;;;;;5.13;4.30;;;;;;;27.58;59.97;100471.81;4941027;28;20190;-75
2023/07/07 10:32:53;;;;;;;5.47;4.87;;;;;;;27.45;60.40;100460.41;4946447;28;20194;-76
2023/07/07 10:35:20;;;;;;;9.00;5.03;;;;;;;27.60;60.14;100467.22;4946633;28;20267;-75
2023/07/07 10:37:46;;;;;;;5.00;4.60;;;;;;;27.60;59.93;100469.88;4947371;28;20206;-74
2023/07/07 10:40:21;;;;;;;5.87;4.90;;;;;;;27.94;59.91;100464.53;4959927;28;20183;-74
2023/07/07 10:42:52;;;;;;;6.40;5.13;;;;;;;27.83;59.76;100476.03;4945723;28;20194;-75
2023/07/07 10:45:17;;;;;;;7.53;5.23;;;;;;;27.83;58.87;100464.56;4951251;28;20567;-75
2023/07/07 10:47:43;;;;;;;5.43;4.57;;;;;;;27.84;59.60;100460.94;4944374;28;20210;-74
2023/07/07 10:50:14;;;;;;;5.63;4.03;;;;;;;28.09;60.21;100454.53;4955540;28;20190;-76
2023/07/07 10:53:12;;;;;;;4.53;4.00;;;;;;;27.97;60.47;100451.00;4946974;28;20183;-76
2023/07/07 10:55:47;;;;;;;5.10;4.60;;;;;;;28.09;60.17;100457.19;4977197;28;20182;-76
2023/07/07 10:58:50;;;;;;;5.97;5.03;;;;;;;28.16;60.01;100456.66;4946356;28;20316;-76
2023/07/07 11:01:50;;;;;;;6.63;4.70;;;;;;;28.17;59.66;100451.25;4942928;28;20238;-75
2023/07/07 11:04:57;;;;;;;6.03;5.17;;;;;;;28.02;60.22;100445.31;4952073;28;20206;-75
2023/07/07 11:07:44;;;;;;;6.13;5.53;;;;;;;28.09;58.52;100448.31;4974240;28;20238;-75
2023/07/07 11:10:27;;;;;;;7.30;4.90;;;;;;;28.37;59.72;100454.06;4964172;29;20198;-74
2023/07/07 11:13:10;;;;;;;5.13;4.30;;;;;;;28.44;59.95;100436.66;4949819;28;20206;-74
2023/07/07 11:15:47;;;;;;;4.57;4.13;;;;;;;28.73;60.41;100425.44;4948441;28;20222;-74
2023/07/07 11:18:40;;;;;;;9.53;4.73;;;;;;;28.38;60.72;100431.81;4962920;28;20304;-76
2023/07/07 11:21:35;;;;;;;7.80;5.70;;;;;;;28.52;59.21;100430.69;4943517;28;20309;-77
2023/07/07 11:24:10;;;;;;;5.43;4.93;;;;;;;28.50;59.06;100429.97;4947859;28;20198;-75
2023/07/07 11:26:48;;;;;;;7.43;5.23;;;;;;;28.79;58.52;100416.94;4948460;28;20280;-76
2023/07/07 11:29:42;;;;;;;6.47;5.80;;;;;;;28.68;57.46;100420.47;4950749;28;20190;-75
2023/07/07 11:32:16;;;;;;;6.20;5.60;;;;;;;28.74;58.39;100406.63;4951008;28;20191;-75